createdAt,value
2018-07-10T00:02:24.765Z,98823.95
2018-07-10T00:07:20.887Z,98820.45
2018-07-10T00:10:02.704Z,98823.34
2018-07-10T00:12:30.764Z,98819.19
2018-07-10T00:14:58.900Z,98818.52
2018-07-10T00:17:26.972Z,98824.98
2018-07-10T00:19:55.032Z,98817.66
2018-07-10T00:22:23.103Z,98815.97
2018-07-10T00:24:51.193Z,98813.48
2018-07-10T00:27:19.272Z,98815.43
2018-07-10T00:29:47.348Z,98813.47
2018-07-10T00:32:16.324Z,98816.47
2018-07-10T00:34:44.405Z,98818.33
2018-07-10T00:37:12.468Z,98815.12
2018-07-10T00:39:40.560Z,98818.50
2018-07-10T00:42:08.652Z,98813.19
2018-07-10T00:44:36.727Z,98813.19
2018-07-10T00:47:04.802Z,98811.00
2018-07-10T00:49:32.886Z,98811.14
2018-07-10T00:52:00.938Z,98811.30
2018-07-10T00:54:29.031Z,98803.86
2018-07-10T00:56:57.102Z,98806.05
2018-07-10T00:59:25.185Z,98803.70
2018-07-10T01:01:55.435Z,98801.33
2018-07-10T01:04:23.632Z,98798.19
2018-07-10T01:06:51.707Z,98802.34
2018-07-10T01:09:19.787Z,98790.85
2018-07-10T01:11:47.864Z,98794.20
2018-07-10T01:14:15.920Z,98793.84
2018-07-10T01:16:43.983Z,98788.39
2018-07-10T01:19:14.636Z,98785.73
2018-07-10T01:21:44.047Z,98789.77
2018-07-10T01:24:12.111Z,98788.27
2018-07-10T01:26:41.523Z,98796.61
2018-07-10T01:29:19.457Z,98793.95
2018-07-10T01:31:55.192Z,98792.27
2018-07-10T01:34:23.699Z,98795.94
2018-07-10T01:36:53.089Z,98793.94
2018-07-10T01:39:21.164Z,98797.44
2018-07-10T01:41:49.296Z,98793.94
2018-07-10T01:44:18.327Z,98791.60
2018-07-10T01:46:46.389Z,98787.30
2018-07-10T01:49:14.555Z,98793.94
2018-07-10T01:51:42.650Z,98790.29
2018-07-10T01:54:10.720Z,98785.62
2018-07-10T01:56:38.882Z,98780.00
2018-07-10T01:59:06.872Z,98775.19
2018-07-10T02:01:35.016Z,98768.35
2018-07-10T02:04:03.102Z,98769.03
2018-07-10T02:06:31.401Z,98762.69
2018-07-10T02:08:59.852Z,98765.34
2018-07-10T02:11:27.912Z,98762.38
2018-07-10T02:13:55.994Z,98754.07
2018-07-10T02:16:24.047Z,98755.22
2018-07-10T02:18:52.267Z,98757.88
2018-07-10T02:21:20.492Z,98757.73
2018-07-10T02:23:48.526Z,98752.09
2018-07-10T02:26:22.363Z,98751.91
2018-07-10T02:28:51.851Z,98755.23
2018-07-10T02:31:20.612Z,98746.09
2018-07-10T02:33:48.880Z,98748.77
2018-07-10T02:36:18.073Z,98743.95
2018-07-10T02:38:48.443Z,98742.77
2018-07-10T02:41:21.688Z,98740.11
2018-07-10T02:43:56.004Z,98727.66
2018-07-10T02:46:25.146Z,98727.48
2018-07-10T02:48:54.505Z,98730.98
2018-07-10T02:51:22.619Z,98726.33
2018-07-10T02:53:50.711Z,98722.80
2018-07-10T02:56:20.641Z,98725.64
2018-07-10T02:58:49.825Z,98730.15
2018-07-10T03:01:18.325Z,98727.17
2018-07-10T03:03:46.385Z,98726.17
2018-07-10T03:06:14.731Z,98721.19
2018-07-10T03:08:43.088Z,98729.47
2018-07-10T03:11:13.129Z,98733.95
2018-07-10T03:13:41.527Z,98730.97
2018-07-10T03:16:09.600Z,98727.66
2018-07-10T03:18:37.672Z,98725.52
2018-07-10T03:21:05.731Z,98726.66
2018-07-10T03:23:33.803Z,98732.11
2018-07-10T03:26:02.063Z,98740.11
2018-07-10T03:28:30.190Z,98735.98
2018-07-10T03:30:58.542Z,98739.78
2018-07-10T03:33:26.614Z,98731.14
2018-07-10T03:35:54.680Z,98731.16
2018-07-10T03:38:23.484Z,98732.14
2018-07-10T03:40:52.188Z,98732.95
2018-07-10T03:43:20.254Z,98732.96
2018-07-10T03:45:49.167Z,98729.66
2018-07-10T03:48:17.573Z,98736.47
2018-07-10T03:50:45.643Z,98734.47
2018-07-10T03:53:13.703Z,98728.33
2018-07-10T03:55:41.767Z,98726.50
2018-07-10T03:58:11.043Z,98732.98
2018-07-10T04:00:39.382Z,98727.66
2018-07-10T04:03:07.672Z,98728.30
2018-07-10T04:05:35.765Z,98728.47
2018-07-10T04:08:05.631Z,98716.29
2018-07-10T04:10:38.212Z,98712.48
2018-07-10T04:13:22.275Z,98719.13
2018-07-10T04:15:53.703Z,98717.62
2018-07-10T04:18:22.872Z,98718.32
2018-07-10T04:20:55.884Z,98718.62
2018-07-10T04:23:26.108Z,98713.76
2018-07-10T04:25:55.355Z,98712.08
2018-07-10T04:28:28.917Z,98717.27
2018-07-10T04:31:06.815Z,98709.27
2018-07-10T04:33:34.890Z,98715.59
2018-07-10T04:38:44.000Z,98712.61
2018-07-10T04:41:19.284Z,98715.84
2018-07-10T04:43:53.999Z,98707.60
2018-07-10T04:46:25.777Z,98707.56
2018-07-10T04:49:07.478Z,98712.19
2018-07-10T04:51:39.970Z,98707.58
2018-07-10T04:55:14.051Z,98711.31
2018-07-10T04:57:55.208Z,98706.98
2018-07-10T05:00:23.303Z,98703.27
2018-07-10T05:02:52.196Z,98702.28
2018-07-10T05:05:20.286Z,98708.06
2018-07-10T05:07:48.384Z,98700.31
2018-07-10T05:10:18.124Z,98704.41
2018-07-10T05:12:46.403Z,98708.11
2018-07-10T05:15:14.808Z,98707.72
2018-07-10T05:17:44.111Z,98710.26
2018-07-10T05:20:12.255Z,98720.83
2018-07-10T05:22:42.704Z,98715.06
2018-07-10T05:25:10.810Z,98709.76
2018-07-10T05:27:38.884Z,98709.47
2018-07-10T05:30:06.984Z,98704.17
2018-07-10T05:32:37.924Z,98709.33
2018-07-10T05:35:05.981Z,98707.16
2018-07-10T05:37:38.621Z,98706.63
2018-07-10T05:40:10.077Z,98700.95
2018-07-10T05:42:48.994Z,98700.77
2018-07-10T05:45:20.664Z,98698.00
2018-07-10T05:47:53.952Z,98699.28
2018-07-10T05:50:22.052Z,98689.75
2018-07-10T05:52:50.349Z,98698.97
2018-07-10T05:55:23.880Z,98699.96
2018-07-10T05:57:52.589Z,98702.78
2018-07-10T06:00:21.779Z,98698.25
2018-07-10T06:02:49.855Z,98701.75
2018-07-10T06:05:17.944Z,98701.05
2018-07-10T06:07:48.081Z,98696.14
2018-07-10T06:10:16.163Z,98705.31
2018-07-10T06:12:44.352Z,98705.06
2018-07-10T06:15:14.330Z,98704.01
2018-07-10T06:17:42.775Z,98705.73
2018-07-10T06:20:10.853Z,98704.58
2018-07-10T06:22:39.228Z,98694.70
2018-07-10T06:28:09.711Z,98703.06
2018-07-10T06:30:39.435Z,98703.04
2018-07-10T06:33:25.221Z,98699.75
2018-07-10T06:36:07.214Z,98704.48
2018-07-10T06:38:39.529Z,98701.75
2018-07-10T06:41:08.113Z,98705.45
2018-07-10T06:43:47.610Z,98700.98
2018-07-10T06:46:16.268Z,98701.26
2018-07-10T06:48:45.788Z,98697.34
2018-07-10T06:51:16.864Z,98703.42
2018-07-10T06:53:47.060Z,98702.77
2018-07-10T06:56:24.191Z,98693.14
2018-07-10T06:58:52.264Z,98700.09
2018-07-10T07:01:20.409Z,98706.58
2018-07-10T07:03:48.460Z,98707.74
2018-07-10T07:06:16.536Z,98699.73
2018-07-10T07:08:44.592Z,98703.02
2018-07-10T07:11:12.670Z,98702.58
2018-07-10T07:13:40.748Z,98701.29
2018-07-10T07:16:08.819Z,98701.26
2018-07-10T07:18:36.903Z,98704.39
2018-07-10T07:21:04.990Z,98703.80
2018-07-10T07:23:33.600Z,98699.05
2018-07-10T07:26:01.696Z,98695.34
2018-07-10T07:28:30.909Z,98697.37
2018-07-10T07:30:59.075Z,98695.27
2018-07-10T07:33:27.139Z,98688.20
2018-07-10T07:35:55.540Z,98689.39
2018-07-10T07:38:23.635Z,98681.26
2018-07-10T07:40:52.506Z,98679.62
2018-07-10T07:43:20.731Z,98674.19
2018-07-10T07:48:24.559Z,98681.20
2018-07-10T07:50:52.676Z,98668.52
2018-07-10T07:53:20.767Z,98660.66
2018-07-10T07:55:49.092Z,98661.77
2018-07-10T07:58:17.169Z,98659.44
2018-07-10T08:00:45.234Z,98648.22
2018-07-10T08:03:13.381Z,98658.38
2018-07-10T08:05:41.455Z,98658.49
2018-07-10T08:08:09.548Z,98658.85
2018-07-10T08:10:37.633Z,98655.50
2018-07-10T08:13:05.781Z,98654.38
2018-07-10T08:15:37.292Z,98639.88
2018-07-10T08:18:05.979Z,98642.91
2018-07-10T08:20:34.570Z,98639.56
2018-07-10T08:23:03.362Z,98645.68
2018-07-10T08:25:31.667Z,98652.16
2018-07-10T08:28:00.152Z,98658.30
2018-07-10T08:30:28.240Z,98673.62
2018-07-10T08:32:56.316Z,98672.77
2018-07-10T08:35:24.407Z,98682.37
2018-07-10T08:37:52.953Z,98680.30
2018-07-10T08:40:21.009Z,98687.19
2018-07-10T08:42:49.092Z,98674.75
2018-07-10T08:45:17.995Z,98670.19
2018-07-10T08:47:46.073Z,98667.87
2018-07-10T08:50:14.359Z,98670.08
2018-07-10T08:52:42.444Z,98690.97
2018-07-10T08:55:10.569Z,98691.88
2018-07-10T08:57:38.675Z,98688.75
2018-07-10T09:00:07.227Z,98685.52
2018-07-10T09:02:35.310Z,98690.28
2018-07-10T09:05:03.393Z,98700.04
2018-07-10T09:07:31.471Z,98698.89
2018-07-10T09:09:59.556Z,98691.23
2018-07-10T09:12:27.656Z,98694.01
2018-07-10T09:14:55.730Z,98692.22
2018-07-10T09:17:23.800Z,98692.80
2018-07-10T09:19:51.857Z,98697.93
2018-07-10T09:22:19.975Z,98691.42
2018-07-10T09:24:54.801Z,98681.20
2018-07-10T09:27:23.643Z,98679.80
2018-07-10T09:29:51.871Z,98685.85
2018-07-10T09:32:26.523Z,98688.23
2018-07-10T09:34:56.564Z,98698.39
2018-07-10T09:37:30.013Z,98692.64
2018-07-10T09:43:06.012Z,98691.95
2018-07-10T09:45:36.437Z,98690.79
2018-07-10T09:48:05.693Z,98678.59
2018-07-10T09:50:33.817Z,98681.61
2018-07-10T09:53:02.819Z,98681.84
2018-07-10T09:55:31.145Z,98674.44
2018-07-10T09:58:00.767Z,98671.02
2018-07-10T10:00:34.680Z,98667.59
2018-07-10T10:03:03.569Z,98679.89
2018-07-10T10:05:40.844Z,98672.52
2018-07-10T10:08:09.177Z,98689.37
2018-07-10T10:10:37.781Z,98688.63
2018-07-10T10:13:06.131Z,98674.46
2018-07-10T10:15:35.349Z,98679.20
2018-07-10T10:18:06.301Z,98680.63
2018-07-10T10:20:37.280Z,98683.65
2018-07-10T10:23:06.002Z,98683.75
2018-07-10T10:25:37.375Z,98696.05
2018-07-10T10:28:08.185Z,98696.08
2018-07-10T10:30:37.932Z,98697.92
2018-07-10T10:33:06.633Z,98705.41
2018-07-10T10:35:35.191Z,98698.92
2018-07-10T10:38:04.312Z,98697.00
2018-07-10T10:40:38.393Z,98709.32
2018-07-10T10:43:10.604Z,98709.22
2018-07-10T10:45:41.130Z,98710.38
2018-07-10T10:48:10.400Z,98707.30
2018-07-10T10:50:39.984Z,98707.19
2018-07-10T10:53:09.068Z,98697.34
2018-07-10T10:55:37.268Z,98698.50
2018-07-10T10:58:06.112Z,98691.14
2018-07-10T11:00:35.592Z,98691.02
2018-07-10T11:03:04.134Z,98693.66
2018-07-10T11:05:33.757Z,98692.02
2018-07-10T11:08:02.365Z,98690.20
2018-07-10T11:10:30.985Z,98689.83
2018-07-10T11:12:59.337Z,98685.23
2018-07-10T11:15:27.536Z,98680.34
2018-07-10T11:18:02.235Z,98687.91
2018-07-10T11:20:44.189Z,98684.89
2018-07-10T11:23:17.778Z,98682.52
2018-07-10T11:25:47.196Z,98682.11
2018-07-10T11:28:15.288Z,98688.77
2018-07-10T11:30:43.396Z,98686.53
2018-07-10T11:33:12.196Z,98688.88
2018-07-10T11:35:41.384Z,98692.11
2018-07-10T11:38:11.720Z,98696.60
2018-07-10T11:40:42.720Z,98687.02
2018-07-10T11:43:12.535Z,98686.11
2018-07-10T11:45:42.123Z,98680.97
2018-07-10T11:48:10.873Z,98681.06
2018-07-10T11:50:39.268Z,98686.36
2018-07-10T11:53:07.346Z,98677.39
2018-07-10T11:55:36.541Z,98686.86
2018-07-10T11:58:07.440Z,98687.42
2018-07-10T12:00:35.645Z,98686.84
2018-07-10T12:03:05.532Z,98677.84
2018-07-10T12:05:35.095Z,98687.52
2018-07-10T12:08:03.202Z,98685.58
2018-07-10T12:10:32.478Z,98668.93
2018-07-10T12:13:00.669Z,98675.03
2018-07-10T12:15:28.751Z,98669.38
2018-07-10T12:17:57.884Z,98669.41
2018-07-10T12:20:30.859Z,98668.36
2018-07-10T12:23:00.070Z,98666.32
2018-07-10T12:25:31.013Z,98665.23
2018-07-10T12:27:59.166Z,98661.28
2018-07-10T12:30:28.128Z,98660.66
2018-07-10T12:32:56.308Z,98657.70
2018-07-10T12:35:24.383Z,98655.89
2018-07-10T12:37:52.596Z,98648.56
2018-07-10T12:40:20.702Z,98643.59
2018-07-10T12:42:48.812Z,98647.04
2018-07-10T12:45:16.896Z,98646.09
2018-07-10T12:47:44.976Z,98643.56
2018-07-10T12:50:13.605Z,98653.16
2018-07-10T12:52:42.662Z,98654.56
2018-07-10T12:55:11.105Z,98650.72
2018-07-10T12:57:42.416Z,98646.56
2018-07-10T13:00:10.608Z,98644.36
2018-07-10T13:02:43.648Z,98640.20
2018-07-10T13:05:13.197Z,98631.52
2018-07-10T13:07:41.467Z,98634.34
2018-07-10T13:10:09.575Z,98617.50
2018-07-10T13:12:37.885Z,98619.91
2018-07-10T13:15:06.093Z,98618.33
2018-07-10T13:17:35.510Z,98620.87
2018-07-10T13:20:05.042Z,98610.50
2018-07-10T13:22:33.148Z,98612.55
2018-07-10T13:25:01.820Z,98617.20
2018-07-10T13:27:29.916Z,98606.34
2018-07-10T18:05:57.838Z,98592.73
2018-07-10T18:08:26.280Z,98587.98
2018-07-10T18:10:55.449Z,98599.13
2018-07-10T18:13:23.604Z,98603.47
2018-07-10T18:15:52.052Z,98596.45
2018-07-10T18:27:07.158Z,98602.75
2018-07-10T18:29:35.408Z,98603.00
2018-07-10T18:32:03.597Z,98599.48
2018-07-10T18:34:31.734Z,98602.61
2018-07-10T18:36:59.848Z,98605.25
2018-07-10T18:39:28.111Z,98607.36
2018-07-10T18:41:57.352Z,98602.97
2018-07-10T18:44:25.840Z,98610.72
2018-07-10T18:46:53.992Z,98615.95
2018-07-10T18:49:22.325Z,98612.81
2018-07-10T18:51:50.548Z,98612.25
2018-07-10T18:54:28.823Z,98612.64
2018-07-10T18:56:58.037Z,98614.21
2018-07-10T18:59:29.790Z,98613.41
2018-07-10T19:02:01.301Z,98622.74
2018-07-10T19:05:04.708Z,98624.08
2018-07-10T19:07:34.362Z,98623.72
2018-07-10T19:10:02.874Z,98628.37
2018-07-10T19:12:30.968Z,98624.69
2018-07-10T19:14:59.119Z,98627.73
2018-07-10T19:17:30.612Z,98631.98
2018-07-10T19:20:02.144Z,98630.83
2018-07-10T19:22:37.212Z,98624.32
2018-07-10T19:25:06.235Z,98622.50
2018-07-10T19:27:34.317Z,98629.22
2018-07-10T19:30:07.257Z,98631.09
2018-07-10T19:32:35.735Z,98632.16
2018-07-10T19:35:03.800Z,98634.19
2018-07-10T19:37:33.743Z,98636.37
2018-07-10T19:40:01.988Z,98635.64
2018-07-10T19:42:31.765Z,98643.21
2018-07-10T19:45:01.857Z,98635.27
2018-07-10T19:47:31.908Z,98644.55
2018-07-10T19:50:08.011Z,98644.79
2018-07-10T19:52:36.242Z,98647.98
2018-07-10T19:55:04.416Z,98653.30
2018-07-10T19:57:48.588Z,98654.02
2018-07-10T20:00:17.146Z,98646.58
2018-07-10T20:02:47.200Z,98649.59
2018-07-10T20:05:16.624Z,98651.61
2018-07-10T20:07:50.836Z,98659.41
2018-07-10T20:10:39.392Z,98657.57
2018-07-10T20:13:10.879Z,98659.74
2018-07-10T20:15:49.828Z,98656.58
2018-07-10T20:18:49.455Z,98654.25
2018-07-10T20:21:26.345Z,98653.78
2018-07-10T20:24:05.636Z,98653.77
2018-07-10T20:26:42.033Z,98658.38
2018-07-10T20:29:18.693Z,98658.05
2018-07-10T20:32:02.355Z,98655.38
2018-07-10T20:34:44.316Z,98665.66
2018-07-10T20:37:27.888Z,98674.13
2018-07-10T20:39:57.511Z,98670.61
2018-07-10T20:42:31.849Z,98673.78
2018-07-10T20:45:06.240Z,98669.61
2018-07-10T20:47:44.803Z,98672.73
2018-07-10T20:50:18.308Z,98671.66
2018-07-10T20:52:52.792Z,98671.13
2018-07-10T20:55:22.024Z,98671.75
2018-07-10T20:58:00.334Z,98672.03
2018-07-10T21:00:31.384Z,98673.66
2018-07-10T21:03:16.517Z,98671.55
2018-07-10T21:05:48.462Z,98671.06
2018-07-10T21:08:29.864Z,98673.71
2018-07-10T21:11:05.749Z,98673.87
2018-07-10T21:13:43.656Z,98674.70
2018-07-10T21:16:25.692Z,98676.95
2018-07-10T21:19:02.634Z,98676.71
2018-07-10T21:22:00.544Z,98678.52
2018-07-10T21:24:37.441Z,98681.47
2018-07-10T21:27:13.285Z,98679.02
2018-07-10T21:29:49.018Z,98669.74
2018-07-10T21:34:36.266Z,98672.36
2018-07-10T21:37:13.845Z,98664.25
2018-07-10T21:40:54.637Z,98664.90
2018-07-10T21:43:32.815Z,98658.20
2018-07-10T21:46:45.376Z,98659.86
2018-07-10T21:49:51.798Z,98665.63
2018-07-10T21:52:20.446Z,98656.04
2018-07-10T21:54:49.132Z,98657.06
2018-07-10T21:57:19.861Z,98664.56
2018-07-10T22:02:43.145Z,98663.52
2018-07-10T22:05:11.884Z,98658.45
2018-07-10T22:07:40.557Z,98662.67
2018-07-10T22:10:09.611Z,98665.16
2018-07-10T22:12:43.169Z,98662.22
2018-07-10T22:15:12.181Z,98669.76
2018-07-10T22:17:41.279Z,98664.53
2018-07-10T22:20:09.857Z,98662.09
2018-07-10T22:22:38.446Z,98660.81
2018-07-10T22:25:08.846Z,98649.81
2018-07-10T22:27:40.500Z,98648.94
2018-07-10T22:30:17.097Z,98646.22
2018-07-10T22:32:51.734Z,98645.97
2018-07-10T22:35:20.347Z,98653.84
2018-07-10T22:37:49.032Z,98640.82
2018-07-10T22:40:18.595Z,98644.95
2018-07-10T22:42:47.292Z,98644.84
2018-07-10T22:45:17.097Z,98643.94
2018-07-10T22:47:45.561Z,98641.73
2018-07-10T22:50:17.885Z,98643.66
2018-07-10T22:52:54.897Z,98637.96
2018-07-10T22:55:28.745Z,98646.78
2018-07-10T22:58:05.467Z,98641.50
2018-07-10T23:00:36.057Z,98637.69
2018-07-10T23:05:56.901Z,98634.92
2018-07-10T23:08:35.201Z,98626.21
2018-07-10T23:11:04.671Z,98636.63
2018-07-10T23:13:34.220Z,98627.77
2018-07-10T23:16:02.922Z,98626.66
2018-07-10T23:18:31.480Z,98629.27
2018-07-10T23:21:00.136Z,98626.25
2018-07-10T23:23:28.591Z,98621.87
2018-07-10T23:25:57.357Z,98612.98
2018-07-10T23:28:27.267Z,98617.43
2018-07-10T23:30:57.779Z,98618.43
2018-07-10T23:33:26.798Z,98618.81
2018-07-10T23:35:59.114Z,98621.58
2018-07-10T23:38:38.989Z,98620.64
2018-07-10T23:41:17.778Z,98616.63
2018-07-10T23:43:47.961Z,98618.52
2018-07-10T23:46:52.030Z,98620.20
2018-07-10T23:49:20.889Z,98617.75
2018-07-10T23:52:00.707Z,98610.06
2018-07-10T23:54:29.196Z,98608.37
2018-07-10T23:56:58.298Z,98607.89
2018-07-10T23:59:26.698Z,98611.94
